Flight Track Log - Related Links

Times and Time Zones

All times are in EDT time to prevent confusion due to time zone crossing. See the SWA2139 flight status page for this flight to view local times or setup timezone preferences in your user account.

Time Position Orientation Groundspeed Altitude Reporting Facility
EDT Latitude Longitude Course Direction KTS MPH feet Rate Location/Type
Tue 08:36:16 AM 30.1525 -97.7642 284° West 238 274 5,100  Level Houston Center
Tue 08:37:18 AM 30.1878 -97.8453 297° West 270 311 7,900 3,387 Climbing Houston Center
Tue 08:38:20 AM 30.2150 -97.9461 287° West 285 328 12,100 3,122 Climbing Houston Center
Tue 08:39:21 AM 30.2350 -98.0464 283° West 295 339 14,300 2,195 Climbing Houston Center
Tue 08:40:00 AM 30.3430 -98.3471 284° West  Level Estimated
Tue 08:40:23 AM 30.2600 -98.1569 285° West 345 397 16,600  Level Houston Center
Tue 08:41:00 AM 30.3676 -98.4608 284° West  Level Estimated
Tue 08:41:24 AM 30.2844 -98.2728 284° West 365 420 19,400  Level Houston Center
Tue 08:42:26 AM 30.3078 -98.3914 283° West 374 430 22,000 2,274 Climbing Houston Center
Tue 08:43:28 AM 30.3328 -98.5114 284° West 379 436 24,100 2,195 Climbing Houston Center
Tue 08:44:29 AM 30.3592 -98.6358 284° West 391 450 26,500 2,049 Climbing Houston Center
Tue 08:45:31 AM 30.3850 -98.7636 283° West 392 451 28,300 1,839 Climbing Houston Center
Tue 08:46:33 AM 30.4117 -98.8867 284° West 398 458 30,300 1,805 Climbing Houston Center
Tue 08:47:34 AM 30.4350 -99.0089 283° West 390 449 32,000 1,707 Climbing Houston Center
Tue 08:48:36 AM 30.4647 -99.1483 284° West 389 448 33,800 1,645 Climbing Houston Center
Tue 08:49:38 AM 30.4900 -99.2683 284° West 387 445 35,400 1,073 Climbing Houston Center
Tue 08:50:39 AM 30.5142 -99.3875 283° West 383 441 36,000 293 Climbing Houston Center
Tue 08:51:41 AM 30.5375 -99.5094 283° West 388 447 36,000  Level Houston Center
Tue 08:52:43 AM 30.5614 -99.6300 283° West 387 445 36,000  Level Houston Center
Tue 08:53:44 AM 30.5850 -99.7472 283° West 380 437 36,000  Level Houston Center
Tue 08:54:46 AM 30.6106 -99.8853 282° West 372 428 36,000  Level Houston Center
Tue 08:55:48 AM 30.6372 -100.0031 285° West 378 435 36,000  Level Houston Center
Tue 08:56:49 AM 30.6608 -100.1200 283° West 375 432 36,000  Level Houston Center
Tue 08:57:51 AM 30.6839 -100.2358 283° West 372 428 36,000  Level Houston Center
Tue 08:58:53 AM 30.7058 -100.3525 282° West 371 427 36,000  Level Houston Center
Tue 08:59:55 AM 30.7300 -100.4675 284° West 370 426 36,000  Level Houston Center
Tue 09:00:56 AM 30.7567 -100.6083 282° West 373 429 36,000  Level Houston Center
Tue 09:01:58 AM 30.7794 -100.7242 283° West 372 428 36,000  Level Houston Center
Tue 09:03:00 AM 30.8031 -100.8403 283° West 372 428 36,000  Level Houston Center
Tue 09:04:01 AM 30.8256 -100.9572 283° West 373 429 36,000  Level Houston Center
Tue 09:05:03 AM 30.8497 -101.0761 283° West 378 435 36,000  Level Houston Center
Tue 09:06:05 AM 30.8719 -101.1947 282° West 377 434 36,000  Level Houston Center
Tue 09:07:06 AM 30.8969 -101.3111 284° West 375 432 36,000  Level Houston Center
Tue 09:07:48 AM 30.9133 -101.4111 281° West 379 436 36,000  Level Albuquerque Center
Tue 09:08:49 AM 30.9356 -101.5325 282° West 381 438 36,000  Level Albuquerque Center
Tue 09:09:49 AM 30.9583 -101.6528 282° West 382 440 36,000  Level Albuquerque Center
Tue 09:10:50 AM 30.9811 -101.7742 282° West 383 441 36,000  Level Albuquerque Center
Tue 09:11:51 AM 31.0042 -101.8969 282° West 386 444 36,000  Level Albuquerque Center
Tue 09:12:51 AM 31.0272 -102.0200 282° West 397 457 36,000  Level Albuquerque Center
Tue 09:13:52 AM 31.0492 -102.1431 282° West 391 450 36,000  Level Albuquerque Center
Tue 09:14:53 AM 31.0719 -102.2672 282° West 392 451 36,000  Level Albuquerque Center
Tue 09:15:54 AM 31.0947 -102.3903 282° West 389 448 36,000  Level Albuquerque Center
Tue 09:16:54 AM 31.1172 -102.5167 282° West 395 455 36,000  Level Albuquerque Center
Tue 09:17:55 AM 31.1411 -102.6486 282° West 387 445 36,000  Level Albuquerque Center
Tue 09:18:56 AM 31.1639 -102.7747 282° West 393 452 36,000  Level Albuquerque Center
Tue 09:19:57 AM 31.1858 -102.8992 282° West 392 451 36,000  Level Albuquerque Center
Tue 09:20:58 AM 31.2083 -103.0228 282° West 391 450 36,000  Level Albuquerque Center
Tue 09:21:59 AM 31.2297 -103.1481 281° West 393 452 36,000  Level Albuquerque Center
Tue 09:22:59 AM 31.2519 -103.2731 282° West 393 452 36,000  Level Albuquerque Center
Tue 09:24:00 AM 31.2731 -103.3956 281° West 388 447 36,000  Level Albuquerque Center
Tue 09:25:01 AM 31.2986 -103.5461 281° West 390 449 36,000  Level Albuquerque Center
Tue 09:26:02 AM 31.3200 -103.6706 281° West 391 450 36,000  Level Albuquerque Center
Tue 09:27:03 AM 31.3381 -103.7758 281° West 391 450 36,000  Level Albuquerque Center
Tue 09:28:04 AM 31.3600 -103.9017 282° West 394 453 36,000  Level Albuquerque Center
Tue 09:29:05 AM 31.3844 -104.0514 281° West 393 452 36,000  Level Albuquerque Center
Tue 09:30:06 AM 31.4069 -104.1775 282° West 395 455 36,000  Level Albuquerque Center
Tue 09:31:07 AM 31.4281 -104.3025 281° West 394 453 36,000  Level Albuquerque Center
Tue 09:32:08 AM 31.4489 -104.4281 281° West 395 455 36,000  Level Albuquerque Center
Tue 09:33:09 AM 31.4639 -104.5547 278° West 395 455 36,000 -1,082 Level Albuquerque Center
Tue 09:34:10 AM 31.4758 -104.6808 276° West 393 452 33,800 -2,705 Descending Albuquerque Center
Tue 09:35:11 AM 31.4894 -104.8089 277° West 397 457 30,500 -2,803 Descending Albuquerque Center
Tue 09:36:12 AM 31.5031 -104.9419 277° West 409 471 28,100 -2,459 Descending Albuquerque Center
Tue 09:37:13 AM 31.5178 -105.0789 277° West 419 482 25,500 -2,459 Descending Albuquerque Center
Tue 09:38:14 AM 31.5314 -105.2131 277° West 422 486 23,100 -2,508 Descending Albuquerque Center
Tue 09:39:15 AM 31.5456 -105.3603 276° West 396 456 20,400 -2,380 Descending Albuquerque Center
Tue 09:40:15 AM 31.5558 -105.4761 276° West 361 415 18,300 -2,000 Descending Albuquerque Center
Tue 09:40:33 AM 31.5581 -105.5103 274° West 356 410 17,800 -2,095 Descending Albuquerque Center
Tue 09:41:18 AM 31.5678 -105.5911 278° West 356 410 16,100 -2,300 Descending Albuquerque Center
Tue 09:41:33 AM 31.5689 -105.6250 272° West 350 403 15,500 -2,164 Descending Albuquerque Center
Tue 09:42:19 AM 31.5781 -105.7028 278° West 347 399 13,900 -2,164 Descending Albuquerque Center
Tue 09:42:34 AM 31.5808 -105.7342 276° West 344 396 13,300 -1,672 Descending Albuquerque Center
Tue 09:43:20 AM 31.5969 -105.8078 284° West 334 384 12,200 -1,869 Descending Albuquerque Center
Tue 09:43:35 AM 31.6178 -105.8397 307° West 323 372 11,400 -1,600 Descending Albuquerque Center
Tue 09:44:35 AM 31.6661 -105.9272 303° West 315 362 10,200 -1,065 Descending Albuquerque Center
Tue 09:45:22 AM 31.6922 -105.9744 303° West 289 333 9,500 -936 Descending Albuquerque Center
Tue 09:46:24 AM 31.7325 -106.0464 303° West 268 308 8,500 -889 Descending Albuquerque Center
Tue 09:46:43 AM 31.7492 -106.0761 303° West 244 281 8,300 -787 Descending Albuquerque Center
Tue 09:47:25 AM 31.7675 -106.1106 302° West 237 273 7,700 -757 Descending Albuquerque Center
Tue 09:48:26 AM 31.7917 -106.1925 289° West 221 254 7,000 -836 Descending Albuquerque Center
Tue 09:49:27 AM 31.7944 -106.2419 274° West 159 183 6,000 -829 Descending Albuquerque Center
Tue 09:50:29 AM 31.7969 -106.2878 274° West 143 165 5,300 -732 Descending Albuquerque Center
Tue 09:51:30 AM 31.7989 -106.3336 273° West 142 163 4,500 -689 Descending Albuquerque Center
Tue 09:52:31 AM 31.8025 -106.3753 276° West 140 161 3,900 -590 Descending Albuquerque Center
Tue 09:54:00 AM 31.8000 -106.3667 270° West  Level FlightAware Approximate
Tue 10:01:00 AM 31.8072 -106.3764 270° West  Level Estimated
Tue 10:02:00 AM 31.8072 -106.3764 270° West  Level Estimated
Tue 10:03:00 AM 31.8072 -106.3764 270° West  Level Estimated
Tue 10:04:00 AM 31.8072 -106.3764 270° West  Level Estimated

Login

Don't have an account? Register now (free) for customized features, flight alerts, and more!